ADDS METAR Data INFO
IDs: Format: Raw Decoded Include TAF

Data at: 0028 UTC 11 Dec 2017

KVLL 110015Z AUTO 23006KT 7SM -SN SCT017 OVC024 M02/M05 A2995 RMK AO2 T10221054
KVLL 102355Z AUTO 23005KT 10SM BKN017 OVC024 M02/M06 A2994 RMK AO2 T10231058 11023 21030
KVLL 102335Z AUTO 22004KT 10SM BKN017 OVC024 M02/M06 A2994 RMK AO2 T10251059
KVLL 102315Z AUTO 22007KT 10SM SCT019 OVC026 M03/M06 A2994 RMK AO2 T10261060
KVLL 102255Z AUTO 23008KT 10SM SCT019 OVC026 M03/M06 A2993 RMK AO2 T10261062
KVLL 102235Z AUTO 21008KT 10SM OVC024 M02/M07 A2992 RMK AO2 T10251070
KVLL 102215Z AUTO 21006KT 7SM OVC024 M02/M07 A2992 RMK AO2 T10251069
KVLL 102155Z AUTO 22008KT 10SM OVC022 M02/M07 A2991 RMK AO2 T10251075
KVLL 102135Z AUTO 21010KT 10SM OVC024 M02/M08 A2991 RMK AO2 T10251076
KVLL 102115Z AUTO 21007KT 10SM OVC024 M03/M08 A2990 RMK AO2 T10261078
KVLL 102055Z AUTO 21006KT 170V230 10SM OVC026 M03/M08 A2989 RMK AO2 T10271079
KVLL 102035Z AUTO 23004KT 10SM OVC026 M03/M08 A2989 RMK AO2 T10281080
KVLL 102015Z AUTO 21008KT 10SM BKN028 OVC050 M03/M08 A2988 RMK AO2 T10281082
KVLL 101956Z AUTO 22009KT 10SM SCT028 OVC060 M03/M08 A2988 RMK AO2 T10291080
KVLL 101935Z AUTO 21007KT 10SM OVC060 M03/M08 A2987 RMK AO2 T10281082
KVLL 101915Z AUTO 22008KT 10SM SCT039 OVC060 M03/M08 A2988 RMK AO2 T10271081
KVLL 101855Z AUTO 23008KT 190V260 10SM SCT033 BKN039 OVC070 M03/M08 A2988 RMK AO2 T10271081
KVLL 101835Z AUTO 23011G17KT 10SM SCT033 SCT039 OVC070 M02/M08 A2989 RMK AO2 T10241084
KVLL 101815Z AUTO 23011KT 10SM SCT040 BKN070 OVC110 M02/M08 A2989 RMK AO2 T10241085
KVLL 101755Z AUTO 20010KT 10SM SCT049 SCT080 OVC110 M02/M09 A2989 RMK AO2 T10251086 11025 21035
KVLL 101735Z AUTO 21007G15KT 10SM SCT026 OVC049 M03/M08 A2990 RMK AO2 T10261079
KVLL 101715Z AUTO 22009G14KT 10SM SCT024 BKN042 OVC049 M03/M08 A2991 RMK AO2 T10271076
KVLL 101655Z AUTO 23012G17KT 10SM SCT024 OVC042 M03/M07 A2993 RMK AO2 T10291074
KVLL 101635Z AUTO 23016G20KT 10SM SCT024 OVC046 M03/M07 A2992 RMK AO2 T10271072
KVLL 101615Z AUTO 22013G18KT 10SM SCT023 BKN048 OVC100 M03/M07 A2993 RMK AO2 T10261070
KVLL 101555Z AUTO 22010G15KT 10SM SCT014 BKN023 OVC100 M02/M06 A2992 RMK AO2 T10251061
KVLL 101535Z AUTO 20008KT 4SM -SN BKN016 BKN025 OVC029 M03/M05 A2993 RMK AO2 T10281053
KVLL 101515Z AUTO 22009KT 2 1/2SM -SN SCT017 OVC021 M03/M05 A2993 RMK AO2 T10291055
KVLL 101455Z AUTO 22008G14KT 4SM -SN BKN017 OVC023 M03/M05 A2993 RMK AO2 T10291055
KVLL 101435Z AUTO 21007KT 2 1/2SM -SN BKN017 BKN024 OVC029 M03/M05 A2993 RMK AO2 VIS 1 3/4V4 T10301055
KVLL 101415Z AUTO 22009KT 2 1/2SM -SN SCT014 BKN021 OVC035 M03/M05 A2993 RMK AO2 T10281050
KVLL 101355Z AUTO 22007KT 2SM -SN BKN015 OVC022 M03/M05 A2993 RMK AO2 T10281052
KVLL 101335Z AUTO 22007KT 2 1/2SM -SN SCT020 BKN031 OVC041 M03/M05 A2993 RMK AO2 T10281052
KVLL 101315Z AUTO 23006KT 10SM OVC031 M03/M05 A2994 RMK AO2 T10301052
KVLL 101255Z AUTO 23008KT 10SM SCT016 OVC031 M03/M05 A2994 RMK AO2 T10311053
KVLL 101235Z AUTO 22006KT 10SM SCT018 BKN033 OVC120 M03/M05 A2994 RMK AO2 T10321055
KVLL 101215Z AUTO 22006KT 10SM SCT014 OVC022 M03/M06 A2994 RMK AO2 T10351057
KVLL 101155Z AUTO 21006KT 10SM BKN016 OVC024 M03/M06 A2994 RMK AO2 T10351058 11023 21040
KVLL 101135Z AUTO 21006KT 10SM SCT018 BKN037 OVC045 M04/M06 A2994 RMK AO2 T10371060
KVLL 101115Z AUTO 21005KT 10SM SCT021 BKN037 OVC044 M04/M06 A2993 RMK AO2 T10381062
KVLL 101055Z AUTO 22005KT 10SM SCT021 SCT027 OVC039 M04/M06 A2993 RMK AO2 T10391064
KVLL 101035Z AUTO 22006KT 10SM OVC041 M04/M06 A2993 RMK AO2 T10401065
KVLL 101015Z AUTO 21004KT 10SM OVC039 M04/M07 A2993 RMK AO2 T10401068
KVLL 100955Z AUTO 22006KT 10SM OVC039 M04/M07 A2993 RMK AO2 T10401070
KVLL 100935Z AUTO 21005KT 10SM OVC041 M04/M07 A2993 RMK AO2 T10401070
KVLL 100915Z AUTO 23004KT 10SM OVC043 M04/M07 A2993 RMK AO2 T10401071
KVLL 100855Z AUTO 23005KT 10SM BKN043 OVC048 M04/M07 A2994 RMK AO2 T10381073
KVLL 100835Z AUTO 00000KT 10SM OVC050 M04/M07 A2994 RMK AO2 T10371072
KVLL 100815Z AUTO 23003KT 10SM OVC050 M03/M07 A2994 RMK AO2 T10351073
KVLL 100755Z AUTO 28004KT 10SM OVC055 M04/M07 A2994 RMK AO2 T10361071
KVLL 100735Z AUTO 30003KT 10SM OVC055 M03/M07 A2994 RMK AO2 T10351068
KVLL 100715Z AUTO 28007KT 10SM SCT055 BKN120 M03/M07 A2994 RMK AO2 T10351067
KVLL 100655Z AUTO 30007KT 10SM CLR M03/M07 A2994 RMK AO2 T10311066
KVLL 100635Z AUTO 30007KT 10SM SCT050 M03/M06 A2993 RMK AO2 T10291064
KVLL 100615Z AUTO 29009KT 10SM BKN050 M02/M06 A2993 RMK AO2 T10251061
KVLL 100555Z AUTO 28007KT 10SM OVC050 M02/M06 A2992 RMK AO2 T10221057 11015 21022 410121042
KVLL 100535Z AUTO 28008KT 10SM OVC050 M02/M06 A2992 RMK AO2 T10201057
KVLL 100515Z AUTO 29009G15KT 10SM OVC050 M02/M06 A2991 RMK AO2 T10201057
KVLL 100455Z AUTO 29010KT 10SM SCT023 OVC050 M02/M06 A2991 RMK AO2 T10201058
KVLL 100435Z AUTO 29009KT 10SM SCT042 OVC048 M02/M05 A2990 RMK AO2 T10191054
KVLL 100415Z AUTO 29007KT 10SM BKN038 OVC050 M02/M05 A2990 RMK AO2 T10161050
KVLL 100355Z AUTO 29007KT 10SM BKN036 BKN042 OVC050 M01/M05 A2990 RMK AO2 T10151048
KVLL 100335Z AUTO 30008KT 10SM BKN038 OVC049 M01/M05 A2989 RMK AO2 T10151047
KVLL 100315Z AUTO 30008KT 10SM SCT038 OVC049 M01/M04 A2988 RMK AO2 T10151045
KVLL 100255Z AUTO 31010G14KT 10SM OVC045 M01/M04 A2988 RMK AO2 T10151044
KVLL 100235Z AUTO 30009KT 10SM OVC045 M01/M04 A2988 RMK AO2 T10151042
KVLL 100215Z AUTO 30010G15KT 10SM OVC043 M01/M04 A2987 RMK AO2 T10151040
KVLL 100155Z AUTO 29008KT 10SM BKN016 OVC045 M02/M04 A2986 RMK AO2 T10161040
KVLL 100135Z AUTO 29008KT 10SM OVC016 M02/M04 A2986 RMK AO2 T10171044
KVLL 100115Z AUTO 30004KT 10SM OVC018 M02/M04 A2986 RMK AO2 T10171045
KVLL 100055Z AUTO 29006KT 10SM OVC020 M02/M04 A2985 RMK AO2 T10181045
KVLL 100035Z AUTO 30005KT 10SM BKN022 OVC029 M02/M04 A2985 RMK AO2 T10171045
KVLL 100015Z AUTO 30004KT 10SM OVC027 M02/M05 A2984 RMK AO2 T10181047
KVLL 092355Z AUTO 32005KT 10SM SCT024 BKN029 OVC038 M02/M05 A2984 RMK AO2 T10201050 11012 21022
KVLL 092335Z AUTO 32005KT 7SM -SN OVC027 M02/M05 A2983 RMK AO2 T10181050
KVLL 092315Z AUTO 30006KT 7SM -SN OVC025 M02/M05 A2983 RMK AO2 T10171050
KVLL 092255Z AUTO 30004KT 7SM -SN OVC025 M02/M05 A2983 RMK AO2 T10171046
KVLL 092235Z AUTO 30003KT 5SM -SN OVC025 M02/M04 A2982 RMK AO2 T10171045
KVLL 092215Z AUTO 30003KT 4SM -SN OVC023 M02/M05 A2980 RMK AO2 T10181047
KVLL 092155Z AUTO 33003KT 4SM -SN OVC023 M02/M05 A2979 RMK AO2 T10191050
KVLL 092135Z AUTO 32003KT 7SM OVC023 M02/M05 A2978 RMK AO2 T10181050
KVLL 092115Z AUTO 30004KT 5SM -SN OVC019 M01/M05 A2977 RMK AO2 T10131049
KVLL 092055Z AUTO 28004KT 7SM OVC017 M02/M05 A2976 RMK AO2 T10181052
KVLL 092035Z AUTO 29004KT 10SM OVC017 M02/M05 A2975 RMK AO2 T10171053
KVLL 092015Z AUTO 00000KT 10SM OVC017 M02/M05 A2975 RMK AO2 T10171053
KVLL 091955Z AUTO 25003KT 10SM OVC015 M02/M05 A2974 RMK AO2 T10201054
KVLL 091935Z AUTO 24003KT 10SM OVC015 M02/M05 A2973 RMK AO2 T10201054
KVLL 091915Z AUTO 23003KT 7SM OVC017 M02/M05 A2973 RMK AO2 T10221055
KVLL 091855Z AUTO 24004KT 5SM -SN OVC017 M02/M05 A2973 RMK AO2 T10221052
KVLL 091835Z AUTO 20003KT 4SM -SN BKN013 OVC020 M02/M05 A2973 RMK AO2 T10201049
KVLL 091815Z AUTO 00000KT 3SM -SN OVC013 M02/M05 A2973 RMK AO2 T10221050
KVLL 091755Z AUTO 22003KT 4SM -SN OVC015 M02/M05 A2973 RMK AO2 T10231050 11023 21042
KVLL 091735Z AUTO 19003KT 2SM -SN SCT008 OVC015 M02/M05 A2973 RMK AO2 T10251048
KVLL 091715Z AUTO 19003KT 1 3/4SM -SN SCT011 OVC021 M03/M05 A2974 RMK AO2 T10261047
KVLL 091655Z AUTO 22005KT 1 3/4SM -SN SCT010 BKN014 OVC019 M03/M05 A2975 RMK AO2 T10281048
KVLL 091635Z AUTO 21004KT 1SM -SN OVC010 M03/M04 A2976 RMK AO2 T10281045
KVLL 091615Z AUTO 18004KT 1SM -SN OVC008 M03/M05 A2976 RMK AO2 T10301046
KVLL 091555Z AUTO 18006KT 1SM -SN OVC008 M03/M05 A2976 RMK AO2 T10301048
KVLL 091535Z AUTO 17007KT 3/4SM -SN OVC008 M03/M05 A2976 RMK AO2 T10301049
KVLL 091516Z AUTO 17007KT 1 1/2SM -SN BKN007 OVC014 M03/M05 A2977 RMK AO2 T10311049
KVLL 091455Z AUTO 17005KT 3/4SM -SN OVC007 M03/M05 A2977 RMK AO2 T10321047
KVLL 091435Z AUTO 18005KT 1 1/4SM -SN OVC009 M03/M05 A2976 RMK AO2 T10351052
KVLL 091415Z AUTO 17006KT 2SM -SN OVC013 M04/M05 A2976 RMK AO2 T10361055
KVLL 091355Z AUTO 18007KT 2 1/2SM -SN OVC015 M04/M06 A2976 RMK AO2 T10391057
KVLL 091335Z AUTO 18006KT 2SM -SN OVC013 M04/M06 A2976 RMK AO2 T10401058
KVLL 091315Z AUTO 21005KT 2SM -SN OVC014 M04/M06 A2976 RMK AO2 T10411060
KVLL 091255Z AUTO 20004KT 1 3/4SM -SN OVC012 M04/M06 A2976 RMK AO2 T10421060
KVLL 091235Z AUTO 21007KT 2SM -SN OVC010 M04/M06 A2977 RMK AO2 T10411061